Cordoba, Argentina

7:48 PM ART on July 25, 2016 (GMT -0300)
Ing Aeron Ambrosio Lv Taravell | | Change Station

Elev 1555 ft 31.32 °S, 64.21 °W | Updated 12 minutes ago

Mostly Cloudy
Mostly Cloudy
50 °F
Feels Like 50 °F
N
7
Wind Variable Wind from SW

Today
High -- | Low -- °F
--% Chance of Precip.
Yesterday
High -- | Low -- °F
Precip. -- in
Pressure 30.06 in
Visibility 3.7 miles
Clouds Scattered Clouds 800 ft
Mostly Cloudy 1200 ft
Dew Point 46 °F
Humidity 87%
Rainfall 0.00 in
Snow Depth Not available.
8:08 AM 6:38 PM
Waning Gibbous, 61% visible
SPECI SACO 252236Z 23006KT 6000 SCT008 BKN012 10/08 Q1018
Pressure 30.06 in
Visibility 3.7 miles
Clouds Scattered Clouds 800 ft
Mostly Cloudy 1200 ft
Dew Point 46 °F
Humidity 87%
Rainfall 0.00 in
Snow Depth Not available.
8:08 AM 6:38 PM
Waning Gibbous, 61% visible
SPECI SACO 252236Z 23006KT 6000 SCT008 BKN012 10/08 Q1018

10-Day Weather Forecast

No radar image for this location.
×

Almanac

Astronomy

Jul. 25, 2016 Rise Set
Actual Time
Civil Twilight
Nautical Twilight
Astronomical Twilight
Moon
Length of Visible Light
Length of Day
Tomorrow will be .
, % of the Moon is Illuminated

Today's Extremes

Country Highs Country Lows

Community

WunderPhotos

Upload Photos

1,927,436 photos uploaded!

WunderBlog® & News

Nearby

Air Quality

  Air Quality AQ Index Pollutant
Not available.

Snow Depth

Station Depth Elevation

Earthquake Activity

City Distance Mag. Time & Date
Minimum magnitude displayed is 2.5.

Coastal Water Temperatures

Place Temperature

Stations

Nearby Weather Stations

Station Location Temp. Windchill Dew Point Humidity Wind Precip. Elev Updated Type